Overview Statistics Trail Chart Weather Telemetry Raw packets
 

This is the latest recevied weather packets stored in our database for station/object VK5GR-12. If no packets are shown the sender has not sent any weather packets the latest 10 day(s).

<< 22 23 24 25 26 27 28 >>
Time Temp. Humidity Pressure Rain* Wind** Luminosity Snow
1788136465 17.78° C 63% 1030.2 hPa 0 mm - 433 W/m² -
1788135566 18.33° C 60% 1030.2 hPa 0 mm - 402 W/m² -
1788134665 18.89° C 56% 1030.4 hPa 0 mm - 372 W/m² -
1788133760 17.22° C 59% 1030.3 hPa 0 mm - 339 W/m² -
1788132858 16.67° C 60% 1030.3 hPa 0 mm - 304 W/m² -
1788131957 15.56° C 63% 1030.4 hPa 0 mm - 265 W/m² -
1788131053 13.89° C 67% 1030.4 hPa 0 mm - 45 W/m² -
1788130148 13.33° C 70% 1030.5 hPa 0 mm - 49 W/m² -
1788129246 11.67° C 74% 1030.4 hPa 0 mm - 32 W/m² -
1788128341 11.67° C 76% 1030.4 hPa 0 mm - 30 W/m² -
1788127438 11.11° C 76% 1030.4 hPa 0 mm - 28 W/m² -
1788126537 11.11° C 75% 1030.2 hPa 0 mm - 23 W/m² -
1788125634 11.67° C 74% 1030.4 hPa 0 mm - 17 W/m² -
1788124730 11.67° C 74% 1030.2 hPa 0 mm - 9 W/m² -
1788123825 11.11° C 75% 1030.5 hPa 0 mm - 3 W/m² -
1788122924 11.11° C 76% 1030.3 hPa 0 mm - 0 W/m² -
1788122021 11.11° C 76% 1030.3 hPa 0 mm - 0 W/m² -
1788121116 11.67° C 75% 1030.3 hPa 0 mm - 0 W/m² -
1788120211 11.67° C 75% 1030 hPa 0 mm - 0 W/m² -
1788119322 11.11° C 75% 1030.1 hPa 0 mm - 0 W/m² -
1788118411 10.56° C 76% 1030 hPa 0 mm - 0 W/m² -
1788117508 10.56° C 75% 1029.9 hPa 0 mm - 0 W/m² -
1788116604 11.11° C 74% 1029.9 hPa 0 mm - 0 W/m² -
1788115699 11.11° C 74% 1030.2 hPa 0 mm - 0 W/m² -
1788114799 11.11° C 74% 1030.2 hPa 0 mm - 0 W/m² -

* Rain latest hour (hover to see other rain measurements)
** Current wind speed in m/s (hover to see current wind gust speed)